createdAt,value
2023-01-01T00:01:43.400Z,62.35
2023-01-01T00:04:15.090Z,61.57
2023-01-01T00:06:43.544Z,61.65
2023-01-01T00:09:28.998Z,61.64
2023-01-01T00:11:55.743Z,61.13
2023-01-01T00:14:22.672Z,62.14
2023-01-01T00:16:49.766Z,62.01
2023-01-01T00:19:16.506Z,62.48
2023-01-01T00:21:43.389Z,62.25
2023-01-01T00:24:10.301Z,62.30
2023-01-01T00:26:37.027Z,62.25
2023-01-01T00:29:04.737Z,61.25
2023-01-01T00:31:31.797Z,61.84
2023-01-01T00:33:58.706Z,62.05
2023-01-01T00:36:27.008Z,61.65
2023-01-01T00:38:53.885Z,61.72
2023-01-01T00:41:20.903Z,62.29
2023-01-01T00:43:47.675Z,62.07
2023-01-01T00:46:14.836Z,61.75
2023-01-01T00:48:41.619Z,61.55
2023-01-01T00:51:08.654Z,61.81
2023-01-01T00:53:35.772Z,61.46
2023-01-01T00:56:03.401Z,62.02
2023-01-01T00:58:30.296Z,62.07
2023-01-01T01:00:57.068Z,61.65
2023-01-01T01:03:30.407Z,62.10
2023-01-01T01:06:06.021Z,61.87
2023-01-01T01:08:34.644Z,62.01
2023-01-01T01:11:11.791Z,62.03
2023-01-01T01:13:39.931Z,61.82
2023-01-01T01:16:28.799Z,62.70
2023-01-01T01:18:58.727Z,62.20
2023-01-01T01:21:26.781Z,63.32
2023-01-01T01:23:54.143Z,62.31
2023-01-01T01:26:24.028Z,62.33
2023-01-01T01:28:51.955Z,62.50
2023-01-01T01:31:20.632Z,62.32
2023-01-01T01:33:48.184Z,62.63
2023-01-01T01:36:16.952Z,62.49
2023-01-01T01:38:43.886Z,62.49
2023-01-01T01:41:26.700Z,62.32
2023-01-01T01:44:04.193Z,62.42
2023-01-01T01:46:44.491Z,62.20
2023-01-01T01:49:25.975Z,62.70
2023-01-01T01:51:54.024Z,62.91
2023-01-01T01:54:24.013Z,62.40
2023-01-01T01:57:04.419Z,62.48
2023-01-01T01:59:36.196Z,62.30
2023-01-01T02:02:03.055Z,62.54
2023-01-01T02:04:29.812Z,62.46
2023-01-01T02:06:56.920Z,62.60
2023-01-01T02:09:23.866Z,62.84
2023-01-01T02:11:50.577Z,62.43
2023-01-01T02:14:17.230Z,62.39
2023-01-01T02:16:49.698Z,62.85
2023-01-01T02:19:38.699Z,62.67
2023-01-01T02:22:11.684Z,62.42
2023-01-01T02:24:57.254Z,61.55
2023-01-01T02:27:42.119Z,61.82
2023-01-01T02:30:10.237Z,62.21
2023-01-01T02:32:45.388Z,62.34
2023-01-01T02:35:51.171Z,62.91
2023-01-01T02:38:32.885Z,62.38
2023-01-01T02:41:02.783Z,62.17
2023-01-01T02:43:29.546Z,62.22
2023-01-01T02:45:56.733Z,62.26
2023-01-01T02:48:48.940Z,61.93
2023-01-01T02:51:21.474Z,62.09
2023-01-01T02:53:59.750Z,62.29
2023-01-01T02:56:37.540Z,61.97
2023-01-01T02:59:43.116Z,61.98
2023-01-01T03:02:25.080Z,61.44
2023-01-01T03:05:14.986Z,61.79
2023-01-01T03:07:51.773Z,61.54
2023-01-01T03:10:33.145Z,61.59
2023-01-01T03:13:09.124Z,61.80
2023-01-01T03:15:48.016Z,61.47
2023-01-01T03:18:24.473Z,61.58
2023-01-01T03:20:54.630Z,61.53
2023-01-01T03:23:35.623Z,61.35
2023-01-01T03:26:08.447Z,61.31
2023-01-01T03:28:40.396Z,61.25
2023-01-01T03:31:07.569Z,61.38
2023-01-01T03:33:43.577Z,61.37
2023-01-01T03:36:15.247Z,60.70
2023-01-01T03:38:50.604Z,60.72
2023-01-01T03:41:26.940Z,60.71
2023-01-01T03:44:03.161Z,61.13
2023-01-01T03:46:33.861Z,61.13
2023-01-01T03:49:04.275Z,61.19
2023-01-01T03:51:58.421Z,60.76
2023-01-01T03:54:30.851Z,60.84
2023-01-01T03:57:16.607Z,60.77
2023-01-01T04:00:02.763Z,60.76
2023-01-01T04:02:42.911Z,60.50
2023-01-01T04:05:11.331Z,60.22
2023-01-01T04:07:39.062Z,60.31
2023-01-01T04:10:17.251Z,60.46
2023-01-01T04:12:50.504Z,60.50
2023-01-01T04:15:19.957Z,60.07
2023-01-01T04:17:47.721Z,59.83
2023-01-01T04:20:14.975Z,59.92
2023-01-01T04:22:42.321Z,60.29
2023-01-01T04:25:10.285Z,60.18
2023-01-01T04:27:38.800Z,60.14
2023-01-01T04:30:08.099Z,60.58
2023-01-01T04:32:34.937Z,59.79
2023-01-01T04:35:01.592Z,60.10
2023-01-01T04:37:28.234Z,59.91
2023-01-01T04:39:54.875Z,59.99
2023-01-01T04:42:21.663Z,59.93
2023-01-01T04:44:48.319Z,59.79
2023-01-01T04:47:15.240Z,59.96
2023-01-01T04:49:41.998Z,59.61
2023-01-01T04:52:08.911Z,59.83
2023-01-01T04:54:35.651Z,60.13
2023-01-01T04:57:02.378Z,59.71
2023-01-01T04:59:30.687Z,59.64
2023-01-01T05:01:58.302Z,59.76
2023-01-01T05:04:25.144Z,59.60
2023-01-01T05:06:51.971Z,59.95
2023-01-01T05:09:18.952Z,60.12
2023-01-01T05:11:45.736Z,59.91
2023-01-01T05:14:12.576Z,59.75
2023-01-01T05:16:40.666Z,59.43
2023-01-01T05:19:07.953Z,59.31
2023-01-01T05:21:40.439Z,59.81
2023-01-01T05:24:09.826Z,59.82
2023-01-01T05:26:41.225Z,59.27
2023-01-01T05:29:15.586Z,59.44
2023-01-01T05:31:43.893Z,60.24
2023-01-01T05:34:10.755Z,59.81
2023-01-01T05:36:40.959Z,59.90
2023-01-01T05:39:09.463Z,60.08
2023-01-01T05:41:36.887Z,60.09
2023-01-01T05:44:06.268Z,59.89
2023-01-01T05:46:33.647Z,59.82
2023-01-01T05:49:00.869Z,60.13
2023-01-01T05:51:29.846Z,59.65
2023-01-01T05:53:58.053Z,59.61
2023-01-01T05:56:25.617Z,59.59
2023-01-01T05:58:52.558Z,59.79
2023-01-01T06:01:24.980Z,59.79
2023-01-01T06:03:53.122Z,59.11
2023-01-01T06:06:22.892Z,59.16
2023-01-01T06:08:51.073Z,58.69
2023-01-01T06:11:18.024Z,59.68
2023-01-01T06:13:44.731Z,58.76
2023-01-01T06:16:12.373Z,58.57
2023-01-01T06:18:39.130Z,58.05
2023-01-01T06:21:06.830Z,58.29
2023-01-01T06:23:33.575Z,58.30
2023-01-01T06:26:16.756Z,58.14
2023-01-01T06:28:44.316Z,57.86
2023-01-01T06:31:13.590Z,58.13
2023-01-01T06:33:42.048Z,58.46
2023-01-01T06:36:11.769Z,58.22
2023-01-01T06:38:42.225Z,57.71
2023-01-01T06:41:12.418Z,57.77
2023-01-01T06:43:39.327Z,58.08
2023-01-01T06:46:18.026Z,58.24
2023-01-01T06:48:47.062Z,58.37
2023-01-01T06:51:16.037Z,58.05
2023-01-01T06:53:43.371Z,58.28
2023-01-01T06:56:10.179Z,58.63
2023-01-01T06:58:37.269Z,58.19
2023-01-01T07:01:10.797Z,58.15
2023-01-01T07:03:38.357Z,58.11
2023-01-01T07:06:06.706Z,57.77
2023-01-01T07:08:33.972Z,57.56
2023-01-01T07:11:00.646Z,57.21
2023-01-01T07:13:29.199Z,57.31
2023-01-01T07:15:55.937Z,57.03
2023-01-01T07:18:24.259Z,57.00
2023-01-01T07:20:56.779Z,56.90
2023-01-01T07:23:24.588Z,56.78
2023-01-01T07:25:52.900Z,57.60
2023-01-01T07:28:20.540Z,57.31
2023-01-01T07:30:47.861Z,57.58
2023-01-01T07:33:17.133Z,57.73
2023-01-01T07:35:47.367Z,57.70
2023-01-01T07:38:14.711Z,57.41
2023-01-01T07:40:41.868Z,57.55
2023-01-01T07:43:09.740Z,57.39
2023-01-01T07:45:36.580Z,57.36
2023-01-01T07:48:03.941Z,57.71
2023-01-01T07:50:32.644Z,57.45
2023-01-01T07:52:59.678Z,57.13
2023-01-01T07:55:27.154Z,57.30
2023-01-01T07:57:53.855Z,57.77
2023-01-01T08:00:21.995Z,57.16
2023-01-01T08:02:49.453Z,57.43
2023-01-01T08:05:19.912Z,56.75
2023-01-01T08:07:51.076Z,56.91
2023-01-01T08:10:20.032Z,56.60
2023-01-01T08:12:47.533Z,56.57
2023-01-01T08:15:15.787Z,55.95
2023-01-01T08:17:46.758Z,55.69
2023-01-01T08:20:14.590Z,55.80
2023-01-01T08:22:41.547Z,55.61
2023-01-01T08:25:08.669Z,54.83
2023-01-01T08:27:35.411Z,55.45
2023-01-01T08:30:02.239Z,55.08
2023-01-01T08:32:30.354Z,54.79
2023-01-01T08:34:57.098Z,54.97
2023-01-01T08:37:24.172Z,54.89
2023-01-01T08:39:53.743Z,54.15
2023-01-01T08:42:20.486Z,53.67
2023-01-01T08:44:47.305Z,54.55
2023-01-01T08:47:22.678Z,53.67
2023-01-01T08:49:49.764Z,53.12
2023-01-01T08:52:17.457Z,53.24
2023-01-01T08:54:44.906Z,52.40
2023-01-01T08:57:12.153Z,52.91
2023-01-01T08:59:38.834Z,53.12
2023-01-01T09:02:06.352Z,52.41
2023-01-01T09:04:33.641Z,52.22
2023-01-01T09:07:00.366Z,52.25
2023-01-01T09:09:31.368Z,52.55
2023-01-01T09:12:03.843Z,52.73
2023-01-01T09:14:31.178Z,52.08
2023-01-01T09:16:57.963Z,51.90
2023-01-01T09:19:24.691Z,51.58
2023-01-01T09:21:52.126Z,51.28
2023-01-01T09:24:18.849Z,51.65
2023-01-01T09:26:46.201Z,51.27
2023-01-01T09:29:13.110Z,51.46
2023-01-01T09:31:39.816Z,51.53
2023-01-01T09:34:06.552Z,51.94
2023-01-01T09:36:33.821Z,52.03
2023-01-01T09:39:02.437Z,51.12
2023-01-01T09:41:56.888Z,50.79
2023-01-01T09:44:23.494Z,50.66
2023-01-01T09:46:52.578Z,50.39
2023-01-01T09:49:25.322Z,49.39
2023-01-01T09:51:58.254Z,48.83
2023-01-01T09:54:33.374Z,49.84
2023-01-01T09:57:03.979Z,49.66
2023-01-01T09:59:30.982Z,48.54
2023-01-01T10:02:11.789Z,49.25
2023-01-01T10:04:50.937Z,49.01
2023-01-01T10:07:40.053Z,49.88
2023-01-01T10:10:25.217Z,49.75
2023-01-01T10:13:07.019Z,49.58
2023-01-01T10:15:40.612Z,50.33
2023-01-01T10:18:17.454Z,50.71
2023-01-01T10:20:57.742Z,49.99
2023-01-01T10:23:28.426Z,50.32
2023-01-01T10:25:58.030Z,49.89
2023-01-01T10:28:39.368Z,49.89
2023-01-01T10:31:21.017Z,50.15
2023-01-01T10:33:48.423Z,49.79
2023-01-01T10:36:19.405Z,49.54
2023-01-01T10:38:48.272Z,49.66
2023-01-01T10:41:19.819Z,49.73
2023-01-01T10:43:48.319Z,49.52
2023-01-01T10:46:19.651Z,49.77
2023-01-01T10:49:12.108Z,49.90
2023-01-01T10:52:02.717Z,50.13
2023-01-01T10:54:40.416Z,49.46
2023-01-01T10:57:30.015Z,49.77
2023-01-01T11:00:11.946Z,49.82
2023-01-01T11:02:38.788Z,49.86
2023-01-01T11:05:22.297Z,49.55
2023-01-01T11:07:49.830Z,50.83
2023-01-01T11:10:22.520Z,50.85
2023-01-01T11:13:09.827Z,50.84
2023-01-01T11:15:42.037Z,50.70
2023-01-01T11:18:23.054Z,51.00
2023-01-01T11:20:58.285Z,51.19
2023-01-01T11:23:52.932Z,51.51
2023-01-01T11:26:24.608Z,52.22
2023-01-01T11:29:14.531Z,51.55
2023-01-01T11:31:42.878Z,51.32
2023-01-01T11:34:32.678Z,51.61
2023-01-01T11:37:33.097Z,51.22
2023-01-01T11:40:01.834Z,51.26
2023-01-01T11:42:34.795Z,50.80
2023-01-01T11:45:23.092Z,50.44
2023-01-01T11:47:59.952Z,50.45
2023-01-01T11:50:34.204Z,50.77
2023-01-01T11:53:19.549Z,50.95
2023-01-01T11:55:52.548Z,51.04
2023-01-01T11:58:38.268Z,51.01
2023-01-01T12:01:13.923Z,51.43
2023-01-01T12:03:53.542Z,51.53
2023-01-01T12:06:23.271Z,51.53
2023-01-01T12:09:01.993Z,51.66
2023-01-01T12:11:38.625Z,51.04
2023-01-01T12:14:13.874Z,50.82
2023-01-01T12:16:56.111Z,51.40
2023-01-01T12:19:41.546Z,50.76
2023-01-01T12:22:17.296Z,50.91
2023-01-01T12:24:45.962Z,50.43
2023-01-01T12:27:21.977Z,50.91
2023-01-01T12:30:18.191Z,50.64
2023-01-01T12:33:07.319Z,50.83
2023-01-01T12:35:43.646Z,50.26
2023-01-01T12:38:39.300Z,50.61
2023-01-01T12:41:23.177Z,51.27
2023-01-01T12:44:06.713Z,51.24
2023-01-01T12:46:48.540Z,51.09
2023-01-01T12:49:38.384Z,51.11
2023-01-01T12:52:22.298Z,51.33
2023-01-01T12:55:07.604Z,51.89
2023-01-01T12:58:09.968Z,51.65
2023-01-01T13:00:44.679Z,51.72
2023-01-01T13:03:20.679Z,52.31
2023-01-01T13:05:55.940Z,51.93
2023-01-01T13:08:22.746Z,52.14
2023-01-01T13:10:53.993Z,52.38
2023-01-01T13:13:20.713Z,52.15
2023-01-01T13:15:54.428Z,52.56
2023-01-01T13:18:24.474Z,52.85
2023-01-01T13:20:57.016Z,52.80
2023-01-01T13:23:35.620Z,52.84
2023-01-01T13:26:17.379Z,52.97
2023-01-01T13:28:56.120Z,52.48
2023-01-01T13:31:38.035Z,52.40
2023-01-01T13:34:35.938Z,52.87
2023-01-01T13:37:14.943Z,52.19
2023-01-01T13:40:01.911Z,52.47
2023-01-01T13:42:50.931Z,52.22
2023-01-01T13:46:00.700Z,52.21
2023-01-01T13:48:42.592Z,51.47
2023-01-01T13:52:05.961Z,51.27
2023-01-01T13:55:03.935Z,50.55
2023-01-01T13:57:38.615Z,51.16
2023-01-01T14:00:17.630Z,51.01
2023-01-01T14:02:48.818Z,51.18
2023-01-01T14:05:22.134Z,51.25
2023-01-01T14:07:55.062Z,51.45
2023-01-01T14:10:33.446Z,51.34
2023-01-01T14:13:06.371Z,51.44
2023-01-01T14:15:35.908Z,51.30
2023-01-01T14:18:05.653Z,51.63
2023-01-01T14:20:43.501Z,51.68
2023-01-01T14:23:17.056Z,51.81
2023-01-01T14:25:45.628Z,51.85
2023-01-01T14:28:20.287Z,51.77
2023-01-01T14:30:47.376Z,51.79
2023-01-01T14:33:29.025Z,51.93
2023-01-01T14:35:58.931Z,51.99
2023-01-01T14:38:35.897Z,52.02
2023-01-01T14:41:39.147Z,52.02
2023-01-01T14:44:16.655Z,52.24
2023-01-01T14:46:51.577Z,52.22
2023-01-01T14:49:27.783Z,52.22
2023-01-01T14:52:02.587Z,52.18
2023-01-01T14:54:36.093Z,52.23
2023-01-01T14:57:03.456Z,52.05
2023-01-01T14:59:32.955Z,52.15
2023-01-01T15:02:02.892Z,52.20
2023-01-01T15:04:30.289Z,51.88
2023-01-01T15:07:00.059Z,51.91
2023-01-01T15:09:28.641Z,51.94
2023-01-01T15:11:56.748Z,51.96
2023-01-01T15:14:29.541Z,51.89
2023-01-01T15:17:07.159Z,51.83
2023-01-01T15:19:35.378Z,51.83
2023-01-01T15:22:09.595Z,52.12
2023-01-01T15:24:38.126Z,52.04
2023-01-01T15:27:07.216Z,52.17
2023-01-01T15:29:39.285Z,52.07
2023-01-01T15:32:09.615Z,52.17
2023-01-01T15:34:43.193Z,52.28
2023-01-01T15:37:17.189Z,52.23
2023-01-01T15:39:53.128Z,52.08
2023-01-01T15:42:39.464Z,52.34
2023-01-01T15:45:25.113Z,52.13
2023-01-01T15:48:05.078Z,52.15
2023-01-01T15:50:34.680Z,52.03
2023-01-01T15:53:08.179Z,52.32
2023-01-01T15:55:42.705Z,52.19
2023-01-01T15:58:19.316Z,52.01
2023-01-01T16:00:56.108Z,52.14
2023-01-01T16:03:26.621Z,52.19
2023-01-01T16:05:57.737Z,52.32
2023-01-01T16:08:25.392Z,52.17
2023-01-01T16:10:52.317Z,52.11
2023-01-01T16:13:19.292Z,52.53
2023-01-01T16:15:55.645Z,52.54
2023-01-01T16:18:28.224Z,52.42
2023-01-01T16:20:55.819Z,52.56
2023-01-01T16:23:22.587Z,52.53
2023-01-01T16:25:49.247Z,52.35
2023-01-01T16:28:15.859Z,52.62
2023-01-01T16:30:43.587Z,52.46
2023-01-01T16:33:18.569Z,52.42
2023-01-01T16:35:45.444Z,52.33
2023-01-01T16:38:12.155Z,52.50
2023-01-01T16:40:38.892Z,52.55
2023-01-01T16:43:09.470Z,52.43
2023-01-01T16:45:36.216Z,52.28
2023-01-01T16:48:03.064Z,52.42
2023-01-01T16:50:29.699Z,52.69
2023-01-01T16:52:56.375Z,52.68
2023-01-01T16:55:23.004Z,52.45
2023-01-01T16:57:49.733Z,52.53
2023-01-01T17:00:16.669Z,52.57
2023-01-01T17:02:43.462Z,52.72
2023-01-01T17:05:11.052Z,52.65
2023-01-01T17:07:37.709Z,52.47
2023-01-01T17:10:04.995Z,52.45
2023-01-01T17:12:32.093Z,52.11
2023-01-01T17:14:58.746Z,52.06
2023-01-01T17:17:26.447Z,51.91
2023-01-01T17:19:53.142Z,52.06
2023-01-01T17:22:21.198Z,52.13
2023-01-01T17:24:47.933Z,52.36
2023-01-01T17:27:14.593Z,52.48
2023-01-01T17:29:41.268Z,52.46
2023-01-01T17:32:07.977Z,52.56
2023-01-01T17:34:34.648Z,52.79
2023-01-01T17:37:01.314Z,52.66
2023-01-01T17:39:28.010Z,52.45
2023-01-01T17:41:54.746Z,52.55
2023-01-01T17:44:21.444Z,52.16
2023-01-01T17:46:48.159Z,52.07
2023-01-01T17:49:15.070Z,51.98
2023-01-01T17:51:41.883Z,51.70
2023-01-01T17:54:13.071Z,51.37
2023-01-01T17:56:40.422Z,51.00
2023-01-01T17:59:07.218Z,50.83
2023-01-01T18:01:35.715Z,50.53
2023-01-01T18:04:05.683Z,49.95
2023-01-01T18:06:38.653Z,50.09
2023-01-01T18:09:11.366Z,49.87
2023-01-01T18:11:38.069Z,49.61
2023-01-01T18:14:05.286Z,49.14
2023-01-01T18:16:34.006Z,49.14
2023-01-01T18:19:03.878Z,48.78
2023-01-01T18:21:31.823Z,48.84
2023-01-01T18:23:59.166Z,48.79
2023-01-01T18:26:29.416Z,48.73
2023-01-01T18:29:01.344Z,49.33
2023-01-01T18:31:30.919Z,48.44
2023-01-01T18:33:57.882Z,48.30
2023-01-01T18:36:27.515Z,48.01
2023-01-01T18:39:15.503Z,48.04
2023-01-01T18:41:48.327Z,48.46
2023-01-01T18:44:30.681Z,48.22
2023-01-01T18:47:06.657Z,47.70
2023-01-01T18:49:35.441Z,47.91
2023-01-01T18:52:07.859Z,48.19
2023-01-01T18:54:35.863Z,47.87
2023-01-01T18:57:29.189Z,48.10
2023-01-01T18:59:59.877Z,47.78
2023-01-01T19:02:43.106Z,47.88
2023-01-01T19:05:18.288Z,48.42
2023-01-01T19:07:51.877Z,48.05
2023-01-01T19:10:18.753Z,47.77
2023-01-01T19:12:45.599Z,47.90
2023-01-01T19:15:18.021Z,48.11
2023-01-01T19:17:45.462Z,47.88
2023-01-01T19:20:21.713Z,47.89
2023-01-01T19:22:48.850Z,48.06
2023-01-01T19:25:36.114Z,47.88
2023-01-01T19:28:25.786Z,47.98
2023-01-01T19:30:52.553Z,48.01
2023-01-01T19:33:19.268Z,48.04
2023-01-01T19:35:45.952Z,48.28
2023-01-01T19:38:12.566Z,48.42
2023-01-01T19:40:39.272Z,48.33
2023-01-01T19:43:06.868Z,48.31
2023-01-01T19:45:33.971Z,48.42
2023-01-01T19:48:00.639Z,48.67
2023-01-01T19:50:27.481Z,48.81
2023-01-01T19:52:54.105Z,49.03
2023-01-01T19:55:20.765Z,49.71
2023-01-01T19:57:47.406Z,49.48
2023-01-01T20:00:14.658Z,49.83
2023-01-01T20:02:46.668Z,49.66
2023-01-01T20:05:14.835Z,49.77
2023-01-01T20:07:41.772Z,49.58
2023-01-01T20:10:08.852Z,49.53
2023-01-01T20:12:35.512Z,49.70
2023-01-01T20:15:05.234Z,49.29
2023-01-01T20:17:31.984Z,49.65
2023-01-01T20:19:58.733Z,48.99
2023-01-01T20:22:25.547Z,49.33
2023-01-01T20:24:52.396Z,49.12
2023-01-01T20:27:24.224Z,49.12
2023-01-01T20:29:51.484Z,49.71
2023-01-01T20:32:19.015Z,49.56
2023-01-01T20:34:45.819Z,49.65
2023-01-01T20:37:31.310Z,49.52
2023-01-01T20:39:58.019Z,49.55
2023-01-01T20:42:24.906Z,49.33
2023-01-01T20:44:51.637Z,49.56
2023-01-01T20:47:18.274Z,49.33
2023-01-01T20:49:46.323Z,49.28
2023-01-01T20:52:13.238Z,49.15
2023-01-01T20:54:39.898Z,49.91
2023-01-01T20:57:06.623Z,49.67
2023-01-01T20:59:36.429Z,49.35
2023-01-01T21:02:06.329Z,50.06
2023-01-01T21:04:33.305Z,49.45
2023-01-01T21:07:00.026Z,49.42
2023-01-01T21:09:26.672Z,49.51
2023-01-01T21:11:53.443Z,49.35
2023-01-01T21:14:23.944Z,49.47
2023-01-01T21:16:51.848Z,49.24
2023-01-01T21:19:26.149Z,49.63
2023-01-01T21:21:56.115Z,49.40
2023-01-01T21:24:28.996Z,49.98
2023-01-01T21:27:05.582Z,49.45
2023-01-01T21:29:33.049Z,49.44
2023-01-01T21:32:18.836Z,49.51
2023-01-01T21:34:45.708Z,49.67
2023-01-01T21:37:41.284Z,49.58
2023-01-01T21:40:45.928Z,49.47
2023-01-01T21:43:31.665Z,49.53
2023-01-01T21:46:07.447Z,49.87
2023-01-01T21:48:41.649Z,49.60
2023-01-01T21:51:14.457Z,49.24
2023-01-01T21:53:41.326Z,49.45
2023-01-01T21:56:32.017Z,49.32
2023-01-01T21:59:28.396Z,49.50
2023-01-01T22:02:31.769Z,49.74
2023-01-01T22:05:01.141Z,49.78
2023-01-01T22:10:29.439Z,49.51
2023-01-01T22:12:58.932Z,49.55
2023-01-01T22:15:26.536Z,49.33
2023-01-01T22:18:07.540Z,49.56
2023-01-01T22:20:38.344Z,49.32
2023-01-01T22:23:41.746Z,49.36
2023-01-01T22:26:20.180Z,49.26
2023-01-01T22:28:50.546Z,49.45
2023-01-01T22:31:28.239Z,49.25
2023-01-01T22:34:00.099Z,49.32
2023-01-01T22:36:33.629Z,48.55
2023-01-01T22:39:13.613Z,48.83
2023-01-01T22:41:42.076Z,48.39
2023-01-01T22:44:11.426Z,48.76
2023-01-01T22:46:41.373Z,48.56
2023-01-01T22:49:30.565Z,48.32
2023-01-01T22:51:58.367Z,47.97
2023-01-01T22:54:25.328Z,47.92
2023-01-01T22:56:51.947Z,47.90
2023-01-01T22:59:18.589Z,48.24
2023-01-01T23:01:45.302Z,47.83
2023-01-01T23:04:12.028Z,47.50
2023-01-01T23:06:38.994Z,47.38
2023-01-01T23:09:05.923Z,47.43
2023-01-01T23:11:32.584Z,47.48
2023-01-01T23:14:17.914Z,47.25
2023-01-01T23:16:44.571Z,47.25
2023-01-01T23:19:11.215Z,47.42
2023-01-01T23:21:42.241Z,47.04
2023-01-01T23:24:17.750Z,47.15
2023-01-01T23:26:45.240Z,46.92
2023-01-01T23:29:13.136Z,47.03
2023-01-01T23:31:41.724Z,46.86
2023-01-01T23:34:08.901Z,47.05
2023-01-01T23:36:35.883Z,46.89
2023-01-01T23:39:02.596Z,46.84
2023-01-01T23:41:29.456Z,46.90
2023-01-01T23:43:56.132Z,46.80
2023-01-01T23:46:23.035Z,46.32
2023-01-01T23:48:49.888Z,46.68
2023-01-01T23:51:18.192Z,46.79
2023-01-01T23:53:45.350Z,46.96
2023-01-01T23:56:12.434Z,46.75
2023-01-01T23:58:39.162Z,46.91
